createdAt,value
2019-03-13T00:00:32.069Z,91.55
2019-03-13T00:01:32.146Z,92.01
2019-03-13T00:02:32.144Z,92.40
2019-03-13T00:03:32.086Z,92.70
2019-03-13T00:04:32.142Z,93.21
2019-03-13T00:05:32.141Z,93.62
2019-03-13T00:06:32.165Z,93.99
2019-03-13T00:07:32.243Z,94.21
2019-03-13T00:08:32.072Z,94.40
2019-03-13T00:09:32.115Z,94.02
2019-03-13T00:10:32.717Z,93.99
2019-03-13T00:11:32.161Z,94.10
2019-03-13T00:12:32.077Z,94.26
2019-03-13T00:13:32.077Z,94.26
2019-03-13T00:14:32.076Z,94.31
2019-03-13T00:15:32.174Z,94.37
2019-03-13T00:16:32.151Z,94.45
2019-03-13T00:17:32.143Z,94.56
2019-03-13T00:18:32.081Z,94.59
2019-03-13T00:19:32.081Z,94.83
2019-03-13T00:20:32.161Z,95.07
2019-03-13T00:21:32.153Z,95.01
2019-03-13T00:22:32.141Z,94.93
2019-03-13T00:23:32.158Z,95.12
2019-03-13T00:24:32.154Z,95.47
2019-03-13T00:25:32.154Z,95.88
2019-03-13T00:26:32.167Z,96.15
2019-03-13T00:27:32.102Z,96.31
2019-03-13T00:28:32.109Z,96.61
2019-03-13T00:29:32.160Z,96.80
2019-03-13T00:30:32.114Z,96.96
2019-03-13T00:31:32.159Z,97.07
2019-03-13T00:32:32.108Z,97.21
2019-03-13T00:33:32.190Z,97.23
2019-03-13T00:34:32.175Z,97.31
2019-03-13T00:35:32.162Z,97.39
2019-03-13T00:36:32.098Z,97.31
2019-03-13T00:37:32.023Z,97.07
2019-03-13T00:38:32.139Z,97.02
2019-03-13T00:39:32.040Z,96.42
2019-03-13T00:40:32.034Z,95.83
2019-03-13T00:41:32.070Z,95.47
2019-03-13T00:42:32.149Z,94.96
2019-03-13T00:43:32.083Z,94.31
2019-03-13T00:44:32.026Z,93.89
2019-03-13T00:45:32.085Z,93.59
2019-03-13T00:46:32.098Z,93.62
2019-03-13T00:47:32.089Z,93.37
2019-03-13T00:48:32.162Z,93.35
2019-03-13T00:49:32.162Z,93.48
2019-03-13T00:50:32.093Z,93.48
2019-03-13T00:51:32.093Z,93.21
2019-03-13T00:52:32.166Z,93.18
2019-03-13T00:53:32.095Z,92.91
2019-03-13T00:54:32.165Z,92.51
2019-03-13T00:55:32.164Z,91.92
2019-03-13T00:56:32.097Z,91.44
2019-03-13T00:57:32.173Z,90.23
2019-03-13T00:58:32.177Z,89.08
2019-03-13T00:59:32.183Z,88.23
2019-03-13T01:00:32.179Z,87.69
2019-03-13T01:01:32.181Z,87.85
2019-03-13T01:02:32.181Z,88.20
2019-03-13T01:03:32.072Z,88.44
2019-03-13T01:04:32.185Z,88.09
2019-03-13T01:05:32.125Z,86.71
2019-03-13T01:06:32.116Z,86.91
2019-03-13T01:07:32.124Z,87.10
2019-03-13T01:08:32.114Z,86.41
2019-03-13T01:09:32.193Z,86.41
2019-03-13T01:10:32.190Z,85.75
2019-03-13T01:11:32.128Z,85.48
2019-03-13T01:12:32.118Z,85.69
2019-03-13T01:13:32.196Z,85.75
2019-03-13T01:14:32.189Z,85.66
2019-03-13T01:15:32.221Z,84.39
2019-03-13T01:16:32.124Z,84.68
2019-03-13T01:17:32.214Z,84.36
2019-03-13T01:18:32.183Z,84.55
2019-03-13T01:19:32.127Z,84.52
2019-03-13T01:20:32.112Z,84.28
2019-03-13T01:21:32.120Z,83.62
2019-03-13T01:22:32.188Z,83.81
2019-03-13T01:23:32.120Z,84.12
2019-03-13T01:24:32.271Z,84.12
2019-03-13T01:25:32.194Z,84.12
2019-03-13T01:26:32.126Z,84.42
2019-03-13T01:27:32.198Z,84.42
2019-03-13T01:28:32.129Z,84.34
2019-03-13T01:29:32.215Z,84.47
2019-03-13T01:30:32.131Z,84.20
2019-03-13T01:31:32.194Z,84.07
2019-03-13T01:32:32.132Z,84.28
2019-03-13T01:33:32.146Z,84.52
2019-03-13T01:34:32.134Z,84.97
2019-03-13T01:35:32.132Z,85.27
2019-03-13T01:36:32.209Z,85.56
2019-03-13T01:37:32.206Z,85.93
2019-03-13T01:38:32.147Z,86.01
2019-03-13T01:39:32.138Z,86.30
2019-03-13T01:40:32.207Z,86.33
2019-03-13T01:41:32.219Z,86.87
2019-03-13T01:42:32.159Z,87.00
2019-03-13T01:43:32.213Z,86.91
2019-03-13T01:44:32.153Z,86.84
2019-03-13T01:45:32.216Z,86.73
2019-03-13T01:46:32.218Z,86.65
2019-03-13T01:47:32.217Z,86.54
2019-03-13T01:48:32.193Z,86.52
2019-03-13T01:49:32.152Z,86.54
2019-03-13T01:50:32.223Z,86.71
2019-03-13T01:51:32.283Z,86.87
2019-03-13T01:52:32.450Z,87.13
2019-03-13T01:53:32.149Z,87.08
2019-03-13T01:54:32.121Z,86.87
2019-03-13T01:55:32.221Z,87.02
2019-03-13T01:56:32.157Z,87.13
2019-03-13T01:57:32.166Z,87.34
2019-03-13T01:58:32.158Z,87.45
2019-03-13T01:59:32.221Z,87.53
2019-03-13T02:00:32.161Z,87.61
2019-03-13T02:01:32.115Z,87.69
2019-03-13T02:02:32.236Z,87.69
2019-03-13T02:03:32.223Z,87.82
2019-03-13T02:04:32.234Z,87.93
2019-03-13T02:05:32.225Z,87.82
2019-03-13T02:06:32.198Z,88.09
2019-03-13T02:07:32.224Z,87.93
2019-03-13T02:08:32.229Z,87.82
2019-03-13T02:09:32.228Z,87.24
2019-03-13T02:10:32.166Z,86.81
2019-03-13T02:11:32.161Z,86.54
2019-03-13T02:12:32.158Z,86.30
2019-03-13T02:13:32.177Z,86.33
2019-03-13T02:14:32.231Z,86.38
2019-03-13T02:15:32.234Z,86.28
2019-03-13T02:16:32.233Z,86.04
2019-03-13T02:17:32.243Z,86.01
2019-03-13T02:18:32.226Z,86.30
2019-03-13T02:19:32.229Z,86.54
2019-03-13T02:20:32.226Z,86.84
2019-03-13T02:21:32.167Z,86.91
2019-03-13T02:22:32.230Z,87.13
2019-03-13T02:23:32.157Z,87.05
2019-03-13T02:24:32.250Z,87.05
2019-03-13T02:25:32.158Z,87.26
2019-03-13T02:26:32.232Z,86.63
2019-03-13T02:27:32.159Z,86.38
2019-03-13T02:28:32.177Z,86.04
2019-03-13T02:29:32.192Z,85.48
2019-03-13T02:30:32.235Z,84.79
2019-03-13T02:31:32.268Z,84.20
2019-03-13T02:32:32.248Z,83.73
2019-03-13T02:33:32.175Z,83.30
2019-03-13T02:34:32.255Z,83.33
2019-03-13T02:35:32.206Z,83.04
2019-03-13T02:36:32.252Z,83.30
2019-03-13T02:37:32.180Z,83.44
2019-03-13T02:38:32.251Z,82.61
2019-03-13T02:39:32.266Z,82.61
2019-03-13T02:40:32.193Z,82.72
2019-03-13T02:41:32.262Z,82.85
2019-03-13T02:42:32.257Z,82.61
2019-03-13T02:43:32.287Z,82.03
2019-03-13T02:44:32.253Z,81.92
2019-03-13T02:45:32.239Z,82.11
2019-03-13T02:46:32.264Z,81.71
2019-03-13T02:47:32.210Z,81.50
2019-03-13T02:48:32.188Z,81.58
2019-03-13T02:49:32.264Z,81.10
2019-03-13T02:50:32.224Z,80.92
2019-03-13T02:51:32.192Z,80.36
2019-03-13T02:52:32.196Z,80.39
2019-03-13T02:53:32.190Z,80.29
2019-03-13T02:54:32.262Z,80.15
2019-03-13T02:55:32.263Z,80.13
2019-03-13T02:56:32.196Z,80.29
2019-03-13T02:57:32.192Z,80.73
2019-03-13T02:58:32.280Z,80.47
2019-03-13T02:59:32.202Z,80.52
2019-03-13T03:00:32.193Z,80.39
2019-03-13T03:01:32.194Z,80.36
2019-03-13T03:02:32.269Z,80.68
2019-03-13T03:03:32.268Z,81.10
2019-03-13T03:04:32.197Z,81.05
2019-03-13T03:05:32.282Z,81.05
2019-03-13T03:06:32.208Z,81.32
2019-03-13T03:07:32.269Z,80.97
2019-03-13T03:08:32.195Z,81.05
2019-03-13T03:09:32.263Z,80.73
2019-03-13T03:10:32.214Z,80.71
2019-03-13T03:11:32.275Z,81.13
2019-03-13T03:12:32.204Z,81.13
2019-03-13T03:13:32.197Z,81.32
2019-03-13T03:14:32.268Z,81.16
2019-03-13T03:15:32.197Z,81.05
2019-03-13T03:16:32.269Z,81.24
2019-03-13T03:17:32.272Z,81.32
2019-03-13T03:18:32.277Z,81.37
2019-03-13T03:19:32.205Z,81.45
2019-03-13T03:20:32.222Z,81.60
2019-03-13T03:21:32.339Z,81.71
2019-03-13T03:22:32.216Z,81.79
2019-03-13T03:23:32.275Z,81.90
2019-03-13T03:24:32.286Z,81.71
2019-03-13T03:25:32.277Z,81.60
2019-03-13T03:26:32.281Z,81.32
2019-03-13T03:27:32.219Z,81.34
2019-03-13T03:28:32.269Z,80.89
2019-03-13T03:29:32.279Z,80.97
2019-03-13T03:30:32.168Z,81.00
2019-03-13T03:31:32.250Z,80.97
2019-03-13T03:32:32.275Z,81.10
2019-03-13T03:33:32.170Z,80.92
2019-03-13T03:34:32.274Z,80.76
2019-03-13T03:35:32.159Z,80.65
2019-03-13T03:36:32.224Z,80.76
2019-03-13T03:37:32.186Z,80.65
2019-03-13T03:38:32.331Z,80.47
2019-03-13T03:39:32.296Z,80.39
2019-03-13T03:40:32.227Z,80.63
2019-03-13T03:41:32.226Z,80.79
2019-03-13T03:42:32.187Z,81.02
2019-03-13T03:43:40.163Z,81.08
2019-03-13T03:44:32.289Z,80.52
2019-03-13T03:45:32.247Z,79.81
2019-03-13T03:46:32.273Z,79.57
2019-03-13T03:47:32.240Z,79.73
2019-03-13T03:48:32.329Z,79.73
2019-03-13T03:49:32.225Z,79.73
2019-03-13T03:50:32.300Z,79.73
2019-03-13T03:51:32.295Z,79.73
2019-03-13T03:52:32.226Z,79.73
2019-03-13T03:53:32.297Z,79.73
2019-03-13T03:54:32.236Z,79.73
2019-03-13T03:55:32.300Z,79.73
2019-03-13T03:56:32.221Z,79.73
2019-03-13T03:57:32.308Z,79.73
2019-03-13T03:58:32.241Z,79.73
2019-03-13T03:59:32.275Z,79.73
2019-03-13T04:00:32.254Z,79.73
2019-03-13T04:01:32.318Z,79.73
2019-03-13T04:02:32.247Z,79.73
2019-03-13T04:03:32.325Z,79.73
2019-03-13T04:04:32.317Z,79.73
2019-03-13T04:05:32.252Z,79.73
2019-03-13T04:06:32.242Z,79.73
2019-03-13T04:07:32.247Z,79.73
2019-03-13T04:08:32.312Z,79.73
2019-03-13T04:09:32.246Z,79.73
2019-03-13T04:10:32.242Z,79.73
2019-03-13T04:11:32.341Z,79.73
2019-03-13T04:12:32.246Z,79.73
2019-03-13T04:13:32.320Z,79.73
2019-03-13T04:14:32.250Z,79.73
2019-03-13T04:15:32.351Z,79.73
2019-03-13T04:16:32.328Z,79.73
2019-03-13T04:17:32.256Z,79.73
2019-03-13T04:18:32.322Z,79.73
2019-03-13T04:19:32.323Z,79.73
2019-03-13T04:20:32.325Z,79.73
2019-03-13T04:21:32.330Z,79.73
2019-03-13T04:22:32.221Z,79.73
2019-03-13T04:23:32.259Z,79.73
2019-03-13T04:24:32.327Z,79.73
2019-03-13T04:25:32.268Z,79.73
2019-03-13T04:26:32.257Z,79.73
2019-03-13T04:27:32.256Z,79.73
2019-03-13T04:28:32.332Z,79.73
2019-03-13T04:29:32.261Z,79.73
2019-03-13T04:30:32.341Z,79.73
2019-03-13T04:31:32.330Z,79.73
2019-03-13T04:32:32.282Z,79.73
2019-03-13T04:33:32.272Z,79.73
2019-03-13T04:34:32.336Z,79.73
2019-03-13T04:35:32.341Z,79.73
2019-03-13T04:36:32.364Z,79.73
2019-03-13T04:37:32.308Z,79.73
2019-03-13T04:38:32.478Z,79.73
2019-03-13T04:39:32.302Z,79.73
2019-03-13T04:40:32.237Z,79.73
2019-03-13T04:41:32.339Z,79.73
2019-03-13T04:42:32.278Z,79.73
2019-03-13T04:43:32.349Z,79.73
2019-03-13T04:44:32.280Z,79.73
2019-03-13T04:45:32.340Z,79.73
2019-03-13T04:46:32.275Z,79.73
2019-03-13T04:47:32.237Z,79.73
2019-03-13T04:48:32.285Z,79.73
2019-03-13T04:49:32.273Z,79.73
2019-03-13T04:50:32.344Z,79.73
2019-03-13T04:51:32.277Z,79.73
2019-03-13T04:52:32.345Z,79.73
2019-03-13T04:53:32.351Z,79.73
2019-03-13T04:54:32.276Z,79.73
2019-03-13T04:55:32.235Z,79.73
2019-03-13T04:56:32.280Z,79.73
2019-03-13T04:57:32.289Z,79.73
2019-03-13T04:58:32.278Z,79.73
2019-03-13T04:59:32.355Z,79.73
2019-03-13T05:00:32.384Z,79.73
2019-03-13T05:01:32.279Z,79.73
2019-03-13T05:02:32.354Z,79.73
2019-03-13T05:03:32.408Z,79.73
2019-03-13T05:04:32.352Z,79.73
2019-03-13T05:05:32.296Z,79.73
2019-03-13T05:06:32.281Z,79.73
2019-03-13T05:07:32.296Z,79.73
2019-03-13T05:08:44.526Z,79.73
2019-03-13T05:09:32.363Z,79.73
2019-03-13T05:10:32.287Z,79.73
2019-03-13T05:11:32.365Z,79.73
2019-03-13T05:12:32.359Z,79.73
2019-03-13T05:13:32.313Z,79.73
2019-03-13T05:14:32.895Z,79.73
2019-03-13T05:15:32.307Z,79.73
2019-03-13T05:16:32.364Z,79.73
2019-03-13T05:17:32.372Z,79.73
2019-03-13T05:18:32.217Z,79.73
2019-03-13T05:19:32.286Z,79.73
2019-03-13T05:20:32.222Z,79.73
2019-03-13T05:21:32.238Z,79.73
2019-03-13T05:22:32.170Z,79.73
2019-03-13T05:23:32.351Z,79.73
2019-03-13T05:24:32.218Z,79.73
2019-03-13T05:25:32.265Z,79.73
2019-03-13T05:26:32.285Z,79.73
2019-03-13T05:27:32.268Z,79.73
2019-03-13T05:28:32.287Z,79.73
2019-03-13T05:29:32.365Z,79.73
2019-03-13T05:30:32.291Z,79.73
2019-03-13T05:31:32.364Z,79.73
2019-03-13T05:32:32.365Z,79.73
2019-03-13T05:33:32.366Z,79.73
2019-03-13T05:34:32.366Z,79.73
2019-03-13T05:35:32.388Z,79.73
2019-03-13T05:36:32.370Z,79.73
2019-03-13T05:37:32.297Z,79.73
2019-03-13T05:38:32.310Z,79.73
2019-03-13T05:39:32.317Z,79.73
2019-03-13T05:40:32.384Z,79.73
2019-03-13T05:41:32.378Z,79.73
2019-03-13T05:42:32.311Z,79.73
2019-03-13T05:43:32.279Z,79.73
2019-03-13T05:44:32.376Z,79.73
2019-03-13T05:45:32.386Z,79.73
2019-03-13T05:46:32.383Z,79.73
2019-03-13T05:47:32.311Z,79.73
2019-03-13T05:48:32.327Z,79.73
2019-03-13T05:49:32.315Z,79.73
2019-03-13T05:51:32.317Z,79.73
2019-03-13T05:52:32.331Z,79.73
2019-03-13T05:53:32.341Z,79.73
2019-03-13T05:54:32.399Z,79.73
2019-03-13T05:55:32.391Z,79.73
2019-03-13T05:56:32.339Z,79.73
2019-03-13T05:57:32.322Z,79.73
2019-03-13T05:58:32.287Z,79.73
2019-03-13T05:59:32.390Z,79.73
2019-03-13T06:00:32.326Z,79.73
2019-03-13T06:01:32.394Z,79.73
2019-03-13T06:02:32.404Z,79.73
2019-03-13T06:03:32.394Z,79.73
2019-03-13T06:04:32.423Z,79.73
2019-03-13T06:05:32.353Z,79.73
2019-03-13T06:06:32.404Z,79.73
2019-03-13T06:07:32.338Z,79.73
2019-03-13T06:08:32.349Z,79.73
2019-03-13T06:09:32.379Z,79.73
2019-03-13T06:10:32.332Z,79.73
2019-03-13T06:11:32.294Z,79.73
2019-03-13T06:12:32.318Z,79.73
2019-03-13T06:13:32.304Z,79.73
2019-03-13T06:14:32.391Z,79.73
2019-03-13T06:15:32.392Z,79.73
2019-03-13T06:16:32.383Z,79.73
2019-03-13T06:17:32.379Z,79.73
2019-03-13T06:18:32.259Z,79.73
2019-03-13T06:19:32.267Z,79.73
2019-03-13T06:20:32.325Z,79.73
2019-03-13T06:21:32.325Z,79.73
2019-03-13T06:22:32.352Z,79.73
2019-03-13T06:23:32.272Z,79.73
2019-03-13T06:24:32.304Z,79.73
2019-03-13T06:25:32.367Z,79.73
2019-03-13T06:26:32.368Z,79.73
2019-03-13T06:27:32.374Z,79.73
2019-03-13T06:28:32.403Z,79.73
2019-03-13T06:29:32.333Z,79.73
2019-03-13T06:30:32.400Z,79.73
2019-03-13T06:31:32.317Z,79.73
2019-03-13T06:32:32.401Z,79.73
2019-03-13T06:33:32.333Z,79.73
2019-03-13T06:34:32.376Z,79.73
2019-03-13T06:35:32.364Z,79.73
2019-03-13T06:36:32.336Z,79.73
2019-03-13T06:37:32.319Z,79.73
2019-03-13T06:38:32.322Z,79.73
2019-03-13T06:39:32.319Z,79.73
2019-03-13T06:40:32.398Z,79.73
2019-03-13T06:41:32.404Z,79.73
2019-03-13T06:42:32.291Z,79.73
2019-03-13T06:43:32.309Z,79.73
2019-03-13T06:44:32.311Z,79.73
2019-03-13T06:45:32.318Z,79.73
2019-03-13T06:46:32.409Z,79.73
2019-03-13T06:47:32.347Z,79.73
2019-03-13T06:48:32.323Z,79.73
2019-03-13T06:49:32.424Z,79.73
2019-03-13T06:50:32.356Z,79.73
2019-03-13T06:51:32.356Z,79.73
2019-03-13T06:52:32.357Z,79.73
2019-03-13T06:53:32.426Z,79.73
2019-03-13T06:54:32.442Z,79.73
2019-03-13T06:55:32.365Z,79.73
2019-03-13T06:56:32.370Z,79.73
2019-03-13T06:57:32.359Z,79.73
2019-03-13T06:58:32.427Z,79.73
2019-03-13T06:59:32.378Z,79.73
2019-03-13T07:00:32.401Z,79.73
2019-03-13T07:01:32.380Z,79.73
2019-03-13T07:02:32.404Z,79.73
2019-03-13T07:03:32.379Z,79.73
2019-03-13T07:04:32.301Z,79.73
2019-03-13T07:05:32.382Z,79.73
2019-03-13T07:06:32.358Z,79.73
2019-03-13T07:07:32.421Z,79.73
2019-03-13T07:08:32.328Z,79.73
2019-03-13T07:09:32.440Z,79.73
2019-03-13T07:10:32.378Z,79.73
2019-03-13T07:11:32.369Z,79.73
2019-03-13T07:12:32.441Z,79.73
2019-03-13T07:13:32.375Z,79.73
2019-03-13T07:14:32.371Z,79.73
2019-03-13T07:15:35.698Z,79.73
2019-03-13T07:16:32.374Z,79.73
2019-03-13T07:17:32.377Z,79.73
2019-03-13T07:18:32.451Z,79.73
2019-03-13T07:19:32.353Z,79.73
2019-03-13T07:20:32.352Z,79.73
2019-03-13T07:21:32.335Z,79.73
2019-03-13T07:22:32.445Z,79.73
2019-03-13T07:23:32.347Z,79.73
2019-03-13T07:24:32.446Z,79.73
2019-03-13T07:25:32.442Z,79.73
2019-03-13T07:26:32.390Z,79.73
2019-03-13T07:27:32.451Z,79.73
2019-03-13T07:28:32.448Z,79.73
2019-03-13T07:29:32.389Z,79.73
2019-03-13T07:30:32.371Z,79.73
2019-03-13T07:31:32.382Z,79.73
2019-03-13T07:32:32.401Z,79.73
2019-03-13T07:33:32.387Z,79.73
2019-03-13T07:34:32.359Z,79.73
2019-03-13T07:35:32.375Z,79.73
2019-03-13T07:36:32.319Z,79.73
2019-03-13T07:37:32.316Z,79.73
2019-03-13T07:38:32.315Z,79.73
2019-03-13T07:39:32.412Z,79.73
2019-03-13T07:40:32.393Z,79.73
2019-03-13T07:41:35.513Z,79.73
2019-03-13T07:42:32.400Z,79.73
2019-03-13T07:43:32.471Z,79.73
2019-03-13T07:44:32.414Z,79.73
2019-03-13T07:45:32.468Z,79.73
2019-03-13T07:46:32.465Z,79.73
2019-03-13T07:47:32.479Z,79.73
2019-03-13T07:48:32.399Z,79.73
2019-03-13T07:49:32.431Z,79.73
2019-03-13T07:50:32.371Z,79.73
2019-03-13T07:51:32.469Z,79.73
2019-03-13T07:52:32.957Z,79.73
2019-03-13T07:53:32.430Z,79.73
2019-03-13T07:54:32.454Z,79.73
2019-03-13T07:55:32.377Z,79.73
2019-03-13T07:56:32.397Z,79.73
2019-03-13T07:57:32.392Z,79.73
2019-03-13T07:58:32.380Z,79.73
2019-03-13T07:59:32.436Z,79.73
2019-03-13T08:00:32.381Z,79.73
2019-03-13T08:01:32.407Z,79.73
2019-03-13T08:02:32.393Z,79.73
2019-03-13T08:03:32.435Z,79.73
2019-03-13T08:04:32.465Z,79.73
2019-03-13T08:05:32.381Z,79.73
2019-03-13T08:06:32.412Z,79.73
2019-03-13T08:07:32.383Z,79.73
2019-03-13T08:08:32.468Z,79.73
2019-03-13T08:09:32.421Z,79.73
2019-03-13T08:10:32.481Z,79.73
2019-03-13T08:11:32.446Z,79.73
2019-03-13T08:12:32.481Z,79.73
2019-03-13T08:13:32.483Z,79.73
2019-03-13T08:14:32.483Z,79.73
2019-03-13T08:15:32.418Z,79.73
2019-03-13T08:16:32.482Z,79.73
2019-03-13T08:17:32.416Z,79.73
2019-03-13T08:18:32.483Z,79.73
2019-03-13T08:19:32.484Z,79.73
2019-03-13T08:20:32.454Z,79.73
2019-03-13T08:21:32.489Z,79.73
2019-03-13T08:22:32.422Z,79.73
2019-03-13T08:23:32.494Z,79.73
2019-03-13T08:24:32.501Z,79.73
2019-03-13T08:25:32.424Z,79.73
2019-03-13T08:26:32.502Z,79.73
2019-03-13T08:27:32.431Z,79.73
2019-03-13T08:28:32.440Z,79.73
2019-03-13T08:29:32.369Z,79.73
2019-03-13T08:30:32.415Z,79.73
2019-03-13T08:31:32.403Z,79.73
2019-03-13T08:32:32.513Z,79.73
2019-03-13T08:33:32.371Z,79.73
2019-03-13T08:34:32.487Z,79.73
2019-03-13T08:35:32.417Z,79.73
2019-03-13T08:36:32.492Z,79.73
2019-03-13T08:37:32.404Z,79.73
2019-03-13T08:38:32.494Z,79.73
2019-03-13T08:39:32.433Z,79.73
2019-03-13T08:40:32.502Z,79.73
2019-03-13T08:41:32.508Z,79.73
2019-03-13T08:42:32.438Z,79.73
2019-03-13T08:43:32.406Z,79.73
2019-03-13T08:44:32.506Z,79.73
2019-03-13T08:45:32.444Z,79.73
2019-03-13T08:46:32.513Z,79.73
2019-03-13T08:47:32.510Z,79.73
2019-03-13T08:48:32.511Z,79.73
2019-03-13T08:49:32.445Z,79.73
2019-03-13T08:50:32.507Z,79.73
2019-03-13T08:51:32.507Z,79.73
2019-03-13T08:52:32.450Z,79.73
2019-03-13T08:53:32.442Z,79.73
2019-03-13T08:54:32.509Z,79.73
2019-03-13T08:55:32.442Z,79.73
2019-03-13T08:56:32.512Z,79.73
2019-03-13T08:57:32.458Z,79.73
2019-03-13T08:58:32.513Z,79.73
2019-03-13T08:59:32.466Z,79.73
2019-03-13T09:00:32.450Z,79.73
2019-03-13T09:01:32.526Z,79.73
2019-03-13T09:02:32.475Z,79.73
2019-03-13T09:03:32.436Z,79.73
2019-03-13T09:04:32.520Z,79.73
2019-03-13T09:05:32.528Z,79.73
2019-03-13T09:06:32.456Z,79.73
2019-03-13T09:07:32.529Z,79.73
2019-03-13T09:08:32.451Z,79.73
2019-03-13T09:09:32.419Z,79.73
2019-03-13T09:10:32.478Z,79.73
2019-03-13T09:11:32.443Z,79.73
2019-03-13T09:12:32.506Z,79.73
2019-03-13T09:13:32.453Z,79.73
2019-03-13T09:14:32.435Z,79.73
2019-03-13T09:15:32.399Z,79.73
2019-03-13T09:16:32.533Z,79.73
2019-03-13T09:17:32.448Z,79.73
2019-03-13T09:18:32.482Z,79.73
2019-03-13T09:19:32.446Z,79.73
2019-03-13T09:20:32.458Z,79.73
2019-03-13T09:21:33.642Z,79.73
2019-03-13T09:22:32.452Z,79.73
2019-03-13T09:23:32.523Z,79.73
2019-03-13T09:24:32.410Z,79.73
2019-03-13T09:25:32.461Z,79.73
2019-03-13T09:26:32.457Z,79.73
2019-03-13T09:27:32.488Z,79.73
2019-03-13T09:28:32.465Z,79.73
2019-03-13T09:29:32.655Z,79.73
2019-03-13T09:30:32.510Z,79.73
2019-03-13T09:31:32.494Z,79.73
2019-03-13T09:32:32.529Z,79.73
2019-03-13T09:33:32.528Z,79.73
2019-03-13T09:34:32.538Z,79.73
2019-03-13T09:35:32.444Z,79.73
2019-03-13T09:36:32.421Z,79.73
2019-03-13T09:37:32.533Z,79.73
2019-03-13T09:38:32.463Z,79.73
2019-03-13T09:39:32.523Z,79.73
2019-03-13T09:40:32.522Z,79.73
2019-03-13T09:41:32.469Z,79.73
2019-03-13T09:42:32.442Z,79.73
2019-03-13T09:43:32.525Z,79.73
2019-03-13T09:44:32.510Z,79.73
2019-03-13T09:45:32.407Z,79.73
2019-03-13T09:46:32.542Z,79.73
2019-03-13T09:47:32.499Z,79.73
2019-03-13T09:48:32.534Z,79.73
2019-03-13T09:49:32.549Z,79.73
2019-03-13T09:50:32.497Z,79.73
2019-03-13T09:51:32.781Z,79.73
2019-03-13T09:52:32.563Z,79.73
2019-03-13T09:53:32.551Z,79.73
2019-03-13T09:54:32.488Z,79.73
2019-03-13T09:55:32.495Z,79.73
2019-03-13T09:56:32.493Z,79.73
2019-03-13T09:57:32.557Z,79.73
2019-03-13T09:58:32.487Z,79.73
2019-03-13T09:59:42.746Z,79.73
2019-03-13T10:00:32.487Z,79.73
2019-03-13T10:01:32.556Z,79.73
2019-03-13T10:02:32.564Z,79.73
2019-03-13T10:03:32.495Z,79.73
2019-03-13T10:04:32.558Z,79.73
2019-03-13T10:05:32.560Z,79.73
2019-03-13T10:06:32.562Z,79.73
2019-03-13T10:07:32.563Z,79.73
2019-03-13T10:08:32.495Z,79.73
2019-03-13T10:09:32.567Z,79.73
2019-03-13T10:10:32.575Z,79.73
2019-03-13T10:11:32.500Z,79.73
2019-03-13T10:12:32.571Z,79.73
2019-03-13T10:13:32.500Z,79.73
2019-03-13T10:14:32.569Z,79.73
2019-03-13T10:15:32.572Z,79.73
2019-03-13T10:16:32.505Z,79.73
2019-03-13T10:17:32.579Z,79.73
2019-03-13T10:18:32.611Z,79.73
2019-03-13T10:19:32.548Z,79.73
2019-03-13T10:20:32.581Z,79.73
2019-03-13T10:21:32.585Z,79.73
2019-03-13T10:22:32.511Z,79.73
2019-03-13T10:23:32.521Z,79.73
2019-03-13T10:24:32.579Z,79.73
2019-03-13T10:25:32.506Z,79.73
2019-03-13T10:26:32.575Z,79.73
2019-03-13T10:27:32.513Z,79.73
2019-03-13T10:28:32.517Z,79.73
2019-03-13T10:29:32.583Z,79.73
2019-03-13T10:30:32.514Z,79.73
2019-03-13T10:31:32.591Z,79.73
2019-03-13T10:32:32.584Z,79.73
2019-03-13T10:33:32.592Z,79.73
2019-03-13T10:34:32.580Z,79.73
2019-03-13T10:35:32.518Z,79.73
2019-03-13T10:36:32.589Z,79.73
2019-03-13T10:37:32.519Z,79.73
2019-03-13T10:38:32.481Z,79.73
2019-03-13T10:39:32.587Z,79.73
2019-03-13T10:40:32.520Z,79.73
2019-03-13T10:41:32.585Z,79.73
2019-03-13T10:42:32.593Z,79.73
2019-03-13T10:43:32.525Z,79.73
2019-03-13T10:44:32.592Z,79.73
2019-03-13T10:45:32.523Z,79.73
2019-03-13T10:46:32.643Z,79.73
2019-03-13T10:47:32.526Z,79.73
2019-03-13T10:48:32.529Z,79.73
2019-03-13T10:49:32.527Z,79.73
2019-03-13T10:50:32.568Z,79.73
2019-03-13T10:51:32.529Z,79.73
2019-03-13T10:52:32.595Z,79.73
2019-03-13T10:53:32.561Z,79.73
2019-03-13T10:54:32.604Z,79.73
2019-03-13T10:55:32.597Z,79.73
2019-03-13T10:56:32.539Z,79.73
2019-03-13T10:57:32.609Z,79.73
2019-03-13T10:58:32.570Z,79.73
2019-03-13T10:59:32.498Z,79.73
2019-03-13T11:00:32.516Z,79.73
2019-03-13T11:01:32.502Z,79.73
2019-03-13T11:02:32.596Z,79.73
2019-03-13T11:03:32.557Z,79.73
2019-03-13T11:04:32.591Z,79.73
2019-03-13T11:05:32.559Z,79.73
2019-03-13T11:06:32.515Z,79.73
2019-03-13T11:07:32.538Z,79.73
2019-03-13T11:08:32.551Z,79.73
2019-03-13T11:09:32.528Z,79.73
2019-03-13T11:10:32.535Z,79.73
2019-03-13T11:11:32.516Z,79.73
2019-03-13T11:12:32.577Z,79.73
2019-03-13T11:13:32.520Z,79.73
2019-03-13T11:14:32.609Z,79.73
2019-03-13T11:15:32.502Z,79.73
2019-03-13T11:16:32.532Z,79.73
2019-03-13T11:17:32.608Z,79.73
2019-03-13T11:18:32.603Z,79.73
2019-03-13T11:19:32.616Z,79.73
2019-03-13T11:20:32.615Z,79.73
2019-03-13T11:21:32.548Z,79.73
2019-03-13T11:22:32.617Z,79.73
2019-03-13T11:23:32.552Z,79.73
2019-03-13T11:24:32.619Z,79.73
2019-03-13T11:25:32.618Z,79.73
2019-03-13T11:26:32.619Z,79.73
2019-03-13T11:27:32.553Z,79.73
2019-03-13T11:28:32.625Z,79.73
2019-03-13T11:29:32.563Z,79.73
2019-03-13T11:30:32.560Z,79.73
2019-03-13T11:31:32.626Z,79.73
2019-03-13T11:32:32.623Z,79.73
2019-03-13T11:33:32.627Z,79.73
2019-03-13T11:34:32.621Z,79.73
2019-03-13T11:35:32.626Z,79.73
2019-03-13T11:36:35.004Z,79.73
2019-03-13T11:37:32.629Z,79.73
2019-03-13T11:38:32.635Z,79.73
2019-03-13T11:39:32.573Z,79.73
2019-03-13T11:40:32.559Z,79.73
2019-03-13T11:41:32.573Z,79.73
2019-03-13T11:42:32.628Z,79.73
2019-03-13T11:43:32.628Z,79.73
2019-03-13T11:44:32.565Z,79.73
2019-03-13T11:45:32.643Z,79.73
2019-03-13T11:46:32.568Z,79.73
2019-03-13T11:47:41.839Z,79.73
2019-03-13T11:48:32.579Z,79.73
2019-03-13T11:49:32.648Z,79.73
2019-03-13T11:50:32.751Z,79.73
2019-03-13T11:51:32.648Z,79.73
2019-03-13T11:52:32.576Z,79.73
2019-03-13T11:53:32.650Z,79.73
2019-03-13T11:54:32.643Z,79.73
2019-03-13T11:55:32.578Z,79.73
2019-03-13T11:56:32.637Z,79.73
2019-03-13T11:57:32.642Z,79.73
2019-03-13T11:58:32.644Z,79.73
2019-03-13T11:59:32.649Z,79.73
2019-03-13T12:00:32.624Z,79.73
2019-03-13T12:01:44.902Z,79.73
2019-03-13T12:02:32.577Z,79.73
2019-03-13T12:03:32.577Z,79.73
2019-03-13T12:04:32.580Z,79.73
2019-03-13T12:05:32.601Z,79.73
2019-03-13T12:06:32.550Z,79.73
2019-03-13T12:07:32.574Z,79.73
2019-03-13T12:08:32.557Z,79.73
2019-03-13T12:09:32.632Z,79.73
2019-03-13T12:10:32.650Z,79.73
2019-03-13T12:11:32.590Z,79.73
2019-03-13T12:12:32.654Z,79.73
2019-03-13T12:13:32.652Z,79.73
2019-03-13T12:14:32.652Z,79.73
2019-03-13T12:15:32.593Z,79.73
2019-03-13T12:16:32.681Z,79.73
2019-03-13T12:17:32.588Z,79.73
2019-03-13T12:18:32.661Z,79.73
2019-03-13T12:19:32.594Z,79.73
2019-03-13T12:20:32.603Z,79.73
2019-03-13T12:21:32.663Z,79.73
2019-03-13T12:22:32.617Z,79.73
2019-03-13T12:23:32.659Z,79.73
2019-03-13T12:24:32.666Z,79.73
2019-03-13T12:25:32.627Z,79.73
2019-03-13T12:26:32.676Z,79.73
2019-03-13T12:27:32.663Z,79.73
2019-03-13T12:28:32.617Z,79.73
2019-03-13T12:29:32.664Z,79.73
2019-03-13T12:30:32.601Z,79.73
2019-03-13T12:31:32.672Z,79.73
2019-03-13T12:32:32.680Z,79.73
2019-03-13T12:33:35.267Z,79.73
2019-03-13T12:34:32.607Z,79.73
2019-03-13T12:35:32.638Z,79.73
2019-03-13T12:36:32.673Z,79.73
2019-03-13T12:37:32.607Z,79.73
2019-03-13T12:38:32.603Z,79.73
2019-03-13T12:39:32.678Z,79.73
2019-03-13T12:40:32.653Z,79.73
2019-03-13T12:41:32.632Z,79.73
2019-03-13T12:42:32.653Z,79.73
2019-03-13T12:43:32.572Z,79.73
2019-03-13T12:44:32.580Z,79.73
2019-03-13T12:45:32.587Z,79.73
2019-03-13T12:46:32.654Z,79.73
2019-03-13T12:47:32.568Z,79.73
2019-03-13T12:48:32.656Z,79.73
2019-03-13T12:49:32.566Z,79.73
2019-03-13T12:50:34.247Z,79.73
2019-03-13T12:51:32.568Z,79.73
2019-03-13T12:52:32.582Z,79.73
2019-03-13T12:53:32.616Z,79.73